sensor_id;sensor_type;location;lat;lon;timestamp;temperature;humidity
10089;DHT22;51898;49.864;8.550;2023-11-21T00:02:46;9.00;100.00
10089;DHT22;51898;49.864;8.550;2023-11-21T00:05:48;9.00;100.00
10089;DHT22;51898;49.864;8.550;2023-11-21T00:08:50;8.90;100.00
10089;DHT22;51898;49.864;8.550;2023-11-21T00:11:52;8.90;100.00
10089;DHT22;51898;49.864;8.550;2023-11-21T00:14:53;9.00;100.00
10089;DHT22;51898;49.864;8.550;2023-11-21T00:18:00;8.90;100.00
10089;DHT22;51898;49.864;8.550;2023-11-21T00:21:02;8.90;100.00
10089;DHT22;51898;49.864;8.550;2023-11-21T00:24:05;8.90;100.00
10089;DHT22;51898;49.864;8.550;2023-11-21T00:27:07;8.80;100.00
10089;DHT22;51898;49.864;8.550;2023-11-21T00:30:09;8.80;100.00
10089;DHT22;51898;49.864;8.550;2023-11-21T00:33:10;8.80;100.00
10089;DHT22;51898;49.864;8.550;2023-11-21T00:36:15;8.80;100.00
10089;DHT22;51898;49.864;8.550;2023-11-21T00:39:19;8.80;100.00
10089;DHT22;51898;49.864;8.550;2023-11-21T00:42:21;8.80;100.00
10089;DHT22;51898;49.864;8.550;2023-11-21T00:45:23;8.80;100.00
10089;DHT22;51898;49.864;8.550;2023-11-21T00:48:24;8.80;100.00
10089;DHT22;51898;49.864;8.550;2023-11-21T00:51:26;8.80;100.00
10089;DHT22;51898;49.864;8.550;2023-11-21T00:54:28;8.80;100.00
10089;DHT22;51898;49.864;8.550;2023-11-21T00:57:31;8.80;100.00
10089;DHT22;51898;49.864;8.550;2023-11-21T01:00:33;8.80;100.00
10089;DHT22;51898;49.864;8.550;2023-11-21T01:03:35;8.80;100.00
10089;DHT22;51898;49.864;8.550;2023-11-21T01:06:37;8.80;100.00
10089;DHT22;51898;49.864;8.550;2023-11-21T01:09:39;8.80;100.00
10089;DHT22;51898;49.864;8.550;2023-11-21T01:12:40;8.80;100.00
10089;DHT22;51898;49.864;8.550;2023-11-21T01:15:43;8.80;100.00
10089;DHT22;51898;49.864;8.550;2023-11-21T01:18:44;8.80;100.00
10089;DHT22;51898;49.864;8.550;2023-11-21T01:21:46;8.80;100.00
10089;DHT22;51898;49.864;8.550;2023-11-21T01:24:48;8.80;100.00
10089;DHT22;51898;49.864;8.550;2023-11-21T01:27:50;8.80;100.00
10089;DHT22;51898;49.864;8.550;2023-11-21T01:30:52;8.90;100.00
10089;DHT22;51898;49.864;8.550;2023-11-21T01:33:55;8.80;100.00
10089;DHT22;51898;49.864;8.550;2023-11-21T01:36:56;8.90;100.00
10089;DHT22;51898;49.864;8.550;2023-11-21T01:39:59;8.90;100.00
10089;DHT22;51898;49.864;8.550;2023-11-21T01:43:02;8.90;100.00
10089;DHT22;51898;49.864;8.550;2023-11-21T01:46:08;8.90;100.00
10089;DHT22;51898;49.864;8.550;2023-11-21T01:49:10;8.90;100.00
10089;DHT22;51898;49.864;8.550;2023-11-21T01:52:15;9.00;100.00
10089;DHT22;51898;49.864;8.550;2023-11-21T01:55:17;9.00;100.00
10089;DHT22;51898;49.864;8.550;2023-11-21T01:58:31;9.00;100.00
10089;DHT22;51898;49.864;8.550;2023-11-21T02:01:34;9.00;100.00
10089;DHT22;51898;49.864;8.550;2023-11-21T02:04:36;9.00;100.00
10089;DHT22;51898;49.864;8.550;2023-11-21T02:07:39;9.00;100.00
10089;DHT22;51898;49.864;8.550;2023-11-21T02:10:41;9.00;100.00
10089;DHT22;51898;49.864;8.550;2023-11-21T02:13:42;9.00;100.00
10089;DHT22;51898;49.864;8.550;2023-11-21T02:16:45;9.00;100.00
10089;DHT22;51898;49.864;8.550;2023-11-21T02:19:49;9.00;100.00
10089;DHT22;51898;49.864;8.550;2023-11-21T02:22:57;9.00;100.00
10089;DHT22;51898;49.864;8.550;2023-11-21T02:26:02;9.00;100.00
10089;DHT22;51898;49.864;8.550;2023-11-21T02:29:05;9.00;100.00
10089;DHT22;51898;49.864;8.550;2023-11-21T02:32:07;9.10;100.00
10089;DHT22;51898;49.864;8.550;2023-11-21T02:35:12;9.10;100.00
10089;DHT22;51898;49.864;8.550;2023-11-21T02:38:14;9.10;100.00
10089;DHT22;51898;49.864;8.550;2023-11-21T02:41:17;9.20;100.00
10089;DHT22;51898;49.864;8.550;2023-11-21T02:44:18;9.20;100.00
10089;DHT22;51898;49.864;8.550;2023-11-21T02:47:20;9.10;100.00
10089;DHT22;51898;49.864;8.550;2023-11-21T02:50:22;9.20;100.00
10089;DHT22;51898;49.864;8.550;2023-11-21T02:53:24;9.20;100.00
10089;DHT22;51898;49.864;8.550;2023-11-21T02:56:26;9.20;100.00
10089;DHT22;51898;49.864;8.550;2023-11-21T02:59:30;9.20;100.00
10089;DHT22;51898;49.864;8.550;2023-11-21T03:02:32;9.20;100.00
10089;DHT22;51898;49.864;8.550;2023-11-21T03:05:34;9.20;100.00
10089;DHT22;51898;49.864;8.550;2023-11-21T03:08:37;9.20;100.00
10089;DHT22;51898;49.864;8.550;2023-11-21T03:11:38;9.20;100.00
10089;DHT22;51898;49.864;8.550;2023-11-21T03:14:40;9.30;100.00
10089;DHT22;51898;49.864;8.550;2023-11-21T03:17:42;9.30;100.00
10089;DHT22;51898;49.864;8.550;2023-11-21T03:20:44;9.20;100.00
10089;DHT22;51898;49.864;8.550;2023-11-21T03:23:47;9.30;100.00
10089;DHT22;51898;49.864;8.550;2023-11-21T03:26:49;9.30;100.00
10089;DHT22;51898;49.864;8.550;2023-11-21T03:29:52;9.30;100.00
10089;DHT22;51898;49.864;8.550;2023-11-21T03:32:54;9.40;100.00
10089;DHT22;51898;49.864;8.550;2023-11-21T03:35:55;9.40;100.00
10089;DHT22;51898;49.864;8.550;2023-11-21T03:38:57;9.40;100.00
10089;DHT22;51898;49.864;8.550;2023-11-21T03:41:59;9.40;100.00
10089;DHT22;51898;49.864;8.550;2023-11-21T03:45:01;9.40;100.00
10089;DHT22;51898;49.864;8.550;2023-11-21T03:48:04;9.50;100.00
10089;DHT22;51898;49.864;8.550;2023-11-21T03:51:09;9.50;100.00
10089;DHT22;51898;49.864;8.550;2023-11-21T03:54:10;9.50;100.00
10089;DHT22;51898;49.864;8.550;2023-11-21T03:57:12;9.50;100.00
10089;DHT22;51898;49.864;8.550;2023-11-21T04:00:15;9.50;100.00
10089;DHT22;51898;49.864;8.550;2023-11-21T04:03:17;9.60;100.00
10089;DHT22;51898;49.864;8.550;2023-11-21T04:06:19;9.50;100.00
10089;DHT22;51898;49.864;8.550;2023-11-21T04:09:21;9.50;99.90
10089;DHT22;51898;49.864;8.550;2023-11-21T04:12:25;9.50;99.90
10089;DHT22;51898;49.864;8.550;2023-11-21T04:15:27;9.50;99.90
10089;DHT22;51898;49.864;8.550;2023-11-21T04:18:28;9.50;99.80
10089;DHT22;51898;49.864;8.550;2023-11-21T04:21:30;9.50;99.90
10089;DHT22;51898;49.864;8.550;2023-11-21T04:24:32;9.50;99.90
10089;DHT22;51898;49.864;8.550;2023-11-21T04:27:33;9.50;99.90
10089;DHT22;51898;49.864;8.550;2023-11-21T04:30:36;9.50;99.80
10089;DHT22;51898;49.864;8.550;2023-11-21T04:33:37;9.50;99.60
10089;DHT22;51898;49.864;8.550;2023-11-21T04:36:39;9.50;99.70
10089;DHT22;51898;49.864;8.550;2023-11-21T04:39:41;9.50;99.60
10089;DHT22;51898;49.864;8.550;2023-11-21T04:42:43;9.50;99.60
10089;DHT22;51898;49.864;8.550;2023-11-21T04:45:44;9.60;99.60
10089;DHT22;51898;49.864;8.550;2023-11-21T04:48:46;9.60;99.60
10089;DHT22;51898;49.864;8.550;2023-11-21T04:51:48;9.60;99.50
10089;DHT22;51898;49.864;8.550;2023-11-21T04:54:50;9.60;99.60
10089;DHT22;51898;49.864;8.550;2023-11-21T04:57:51;9.60;99.40
10089;DHT22;51898;49.864;8.550;2023-11-21T05:00:53;9.60;99.40
10089;DHT22;51898;49.864;8.550;2023-11-21T05:03:55;9.60;99.40
10089;DHT22;51898;49.864;8.550;2023-11-21T05:06:58;9.50;99.50
10089;DHT22;51898;49.864;8.550;2023-11-21T05:10:02;9.50;99.60
10089;DHT22;51898;49.864;8.550;2023-11-21T05:13:05;9.40;100.00
10089;DHT22;51898;49.864;8.550;2023-11-21T05:16:11;9.40;100.00
10089;DHT22;51898;49.864;8.550;2023-11-21T05:19:14;9.30;100.00
10089;DHT22;51898;49.864;8.550;2023-11-21T05:22:15;9.30;100.00
10089;DHT22;51898;49.864;8.550;2023-11-21T05:25:17;9.20;100.00
10089;DHT22;51898;49.864;8.550;2023-11-21T05:28:20;9.10;100.00
10089;DHT22;51898;49.864;8.550;2023-11-21T05:31:21;9.10;100.00
10089;DHT22;51898;49.864;8.550;2023-11-21T05:34:23;9.10;100.00
10089;DHT22;51898;49.864;8.550;2023-11-21T05:37:25;9.10;100.00
10089;DHT22;51898;49.864;8.550;2023-11-21T05:40:28;9.10;100.00
10089;DHT22;51898;49.864;8.550;2023-11-21T05:43:32;9.00;100.00
10089;DHT22;51898;49.864;8.550;2023-11-21T05:46:36;9.00;100.00
10089;DHT22;51898;49.864;8.550;2023-11-21T05:49:38;9.00;100.00
10089;DHT22;51898;49.864;8.550;2023-11-21T05:52:41;9.00;100.00
10089;DHT22;51898;49.864;8.550;2023-11-21T05:55:43;9.00;100.00
10089;DHT22;51898;49.864;8.550;2023-11-21T05:58:45;9.00;100.00
10089;DHT22;51898;49.864;8.550;2023-11-21T06:01:47;9.00;100.00
10089;DHT22;51898;49.864;8.550;2023-11-21T06:04:48;8.90;100.00
10089;DHT22;51898;49.864;8.550;2023-11-21T06:07:51;8.80;100.00
10089;DHT22;51898;49.864;8.550;2023-11-21T06:10:54;8.80;100.00
10089;DHT22;51898;49.864;8.550;2023-11-21T06:13:57;8.70;100.00
10089;DHT22;51898;49.864;8.550;2023-11-21T06:16:59;8.60;100.00
10089;DHT22;51898;49.864;8.550;2023-11-21T06:20:01;8.60;100.00
10089;DHT22;51898;49.864;8.550;2023-11-21T06:23:05;8.60;100.00
10089;DHT22;51898;49.864;8.550;2023-11-21T06:26:07;8.60;100.00
10089;DHT22;51898;49.864;8.550;2023-11-21T06:29:15;8.60;100.00
10089;DHT22;51898;49.864;8.550;2023-11-21T06:32:16;8.60;100.00
10089;DHT22;51898;49.864;8.550;2023-11-21T06:35:18;8.60;100.00
10089;DHT22;51898;49.864;8.550;2023-11-21T06:38:20;8.60;100.00
10089;DHT22;51898;49.864;8.550;2023-11-21T06:41:21;8.60;100.00
10089;DHT22;51898;49.864;8.550;2023-11-21T06:44:23;8.60;100.00
10089;DHT22;51898;49.864;8.550;2023-11-21T06:47:25;8.70;100.00
10089;DHT22;51898;49.864;8.550;2023-11-21T06:50:27;8.70;100.00
10089;DHT22;51898;49.864;8.550;2023-11-21T06:53:29;8.70;100.00
10089;DHT22;51898;49.864;8.550;2023-11-21T06:56:31;8.70;100.00
10089;DHT22;51898;49.864;8.550;2023-11-21T06:59:32;8.80;100.00
10089;DHT22;51898;49.864;8.550;2023-11-21T07:02:34;8.80;100.00
10089;DHT22;51898;49.864;8.550;2023-11-21T07:05:36;8.80;100.00
10089;DHT22;51898;49.864;8.550;2023-11-21T07:08:38;8.90;100.00
10089;DHT22;51898;49.864;8.550;2023-11-21T07:11:40;8.80;100.00
10089;DHT22;51898;49.864;8.550;2023-11-21T07:14:44;8.80;100.00
10089;DHT22;51898;49.864;8.550;2023-11-21T07:17:46;8.80;100.00
10089;DHT22;51898;49.864;8.550;2023-11-21T07:20:50;8.80;100.00
10089;DHT22;51898;49.864;8.550;2023-11-21T07:23:51;8.70;100.00
10089;DHT22;51898;49.864;8.550;2023-11-21T07:26:53;8.80;100.00
10089;DHT22;51898;49.864;8.550;2023-11-21T07:29:58;8.70;100.00
10089;DHT22;51898;49.864;8.550;2023-11-21T07:33:00;8.80;100.00
10089;DHT22;51898;49.864;8.550;2023-11-21T07:36:01;8.90;100.00
10089;DHT22;51898;49.864;8.550;2023-11-21T07:39:03;8.90;100.00
10089;DHT22;51898;49.864;8.550;2023-11-21T07:42:05;8.90;100.00
10089;DHT22;51898;49.864;8.550;2023-11-21T07:45:07;8.90;100.00
10089;DHT22;51898;49.864;8.550;2023-11-21T07:48:09;8.90;100.00
10089;DHT22;51898;49.864;8.550;2023-11-21T07:51:10;9.00;100.00
10089;DHT22;51898;49.864;8.550;2023-11-21T07:54:12;9.00;100.00
10089;DHT22;51898;49.864;8.550;2023-11-21T07:57:14;9.00;100.00
10089;DHT22;51898;49.864;8.550;2023-11-21T08:00:16;9.10;100.00
10089;DHT22;51898;49.864;8.550;2023-11-21T08:03:18;9.10;100.00
10089;DHT22;51898;49.864;8.550;2023-11-21T08:06:20;9.10;100.00
10089;DHT22;51898;49.864;8.550;2023-11-21T08:09:21;9.20;100.00
10089;DHT22;51898;49.864;8.550;2023-11-21T08:12:25;9.20;100.00
10089;DHT22;51898;49.864;8.550;2023-11-21T08:15:29;9.20;100.00
10089;DHT22;51898;49.864;8.550;2023-11-21T08:18:34;9.20;100.00
10089;DHT22;51898;49.864;8.550;2023-11-21T08:21:35;9.30;100.00
10089;DHT22;51898;49.864;8.550;2023-11-21T08:24:39;9.30;100.00
10089;DHT22;51898;49.864;8.550;2023-11-21T08:27:40;9.40;100.00
10089;DHT22;51898;49.864;8.550;2023-11-21T08:30:42;9.40;100.00
10089;DHT22;51898;49.864;8.550;2023-11-21T08:33:44;9.40;100.00
10089;DHT22;51898;49.864;8.550;2023-11-21T08:36:45;9.50;100.00
10089;DHT22;51898;49.864;8.550;2023-11-21T08:39:48;9.50;99.80
10089;DHT22;51898;49.864;8.550;2023-11-21T08:42:54;9.50;99.70
10089;DHT22;51898;49.864;8.550;2023-11-21T08:45:56;9.50;98.90
10089;DHT22;51898;49.864;8.550;2023-11-21T08:48:57;9.60;98.80
10089;DHT22;51898;49.864;8.550;2023-11-21T08:51:59;9.70;98.40
10089;DHT22;51898;49.864;8.550;2023-11-21T08:55:01;9.60;97.90
10089;DHT22;51898;49.864;8.550;2023-11-21T08:58:09;9.60;97.70
10089;DHT22;51898;49.864;8.550;2023-11-21T09:01:11;9.60;97.50
10089;DHT22;51898;49.864;8.550;2023-11-21T09:04:14;9.60;97.60
10089;DHT22;51898;49.864;8.550;2023-11-21T09:07:15;9.70;97.60
10089;DHT22;51898;49.864;8.550;2023-11-21T09:10:17;9.70;96.90
10089;DHT22;51898;49.864;8.550;2023-11-21T09:13:19;9.70;97.30
10089;DHT22;51898;49.864;8.550;2023-11-21T09:16:22;9.60;97.30
10089;DHT22;51898;49.864;8.550;2023-11-21T09:19:23;9.60;97.20
10089;DHT22;51898;49.864;8.550;2023-11-21T09:22:26;9.60;97.10
10089;DHT22;51898;49.864;8.550;2023-11-21T09:25:28;9.60;97.00
10089;DHT22;51898;49.864;8.550;2023-11-21T09:28:30;9.60;97.20
10089;DHT22;51898;49.864;8.550;2023-11-21T09:31:32;9.60;96.80
10089;DHT22;51898;49.864;8.550;2023-11-21T09:34:35;9.70;97.00
10089;DHT22;51898;49.864;8.550;2023-11-21T09:37:40;9.60;97.00
10089;DHT22;51898;49.864;8.550;2023-11-21T09:40:42;9.60;97.20
10089;DHT22;51898;49.864;8.550;2023-11-21T09:43:46;9.70;97.40
10089;DHT22;51898;49.864;8.550;2023-11-21T09:46:48;9.70;97.00
10089;DHT22;51898;49.864;8.550;2023-11-21T09:49:56;9.70;96.40
10089;DHT22;51898;49.864;8.550;2023-11-21T09:56:22;9.70;96.20
10089;DHT22;51898;49.864;8.550;2023-11-21T09:59:30;9.80;95.70
10089;DHT22;51898;49.864;8.550;2023-11-21T10:02:32;9.70;95.50
10089;DHT22;51898;49.864;8.550;2023-11-21T10:05:39;9.70;95.10
10089;DHT22;51898;49.864;8.550;2023-11-21T10:08:41;9.70;95.20
10089;DHT22;51898;49.864;8.550;2023-11-21T10:11:56;9.80;95.20
10089;DHT22;51898;49.864;8.550;2023-11-21T10:15:00;9.90;94.80
10089;DHT22;51898;49.864;8.550;2023-11-21T10:18:04;10.00;94.30
10089;DHT22;51898;49.864;8.550;2023-11-21T10:21:08;9.90;93.20
10089;DHT22;51898;49.864;8.550;2023-11-21T10:24:10;10.00;93.00
10089;DHT22;51898;49.864;8.550;2023-11-21T10:27:14;10.10;92.40
10089;DHT22;51898;49.864;8.550;2023-11-21T10:30:15;10.10;92.30
10089;DHT22;51898;49.864;8.550;2023-11-21T10:33:17;10.10;92.00
10089;DHT22;51898;49.864;8.550;2023-11-21T10:36:28;10.10;92.10
10089;DHT22;51898;49.864;8.550;2023-11-21T10:39:30;10.20;91.50
10089;DHT22;51898;49.864;8.550;2023-11-21T10:42:32;10.20;91.70
10089;DHT22;51898;49.864;8.550;2023-11-21T10:45:37;10.30;92.00
10089;DHT22;51898;49.864;8.550;2023-11-21T10:48:41;10.40;91.80
10089;DHT22;51898;49.864;8.550;2023-11-21T10:51:44;10.50;91.30
10089;DHT22;51898;49.864;8.550;2023-11-21T10:54:46;10.60;91.10
10089;DHT22;51898;49.864;8.550;2023-11-21T10:57:52;10.80;90.60
10089;DHT22;51898;49.864;8.550;2023-11-21T11:00:54;10.80;89.50
10089;DHT22;51898;49.864;8.550;2023-11-21T11:03:56;10.80;88.70
10089;DHT22;51898;49.864;8.550;2023-11-21T11:07:03;10.80;88.70
10089;DHT22;51898;49.864;8.550;2023-11-21T11:10:08;10.80;88.40
10089;DHT22;51898;49.864;8.550;2023-11-21T11:13:15;10.70;88.30
10089;DHT22;51898;49.864;8.550;2023-11-21T11:16:18;10.70;87.60
10089;DHT22;51898;49.864;8.550;2023-11-21T11:19:19;10.60;87.20
10089;DHT22;51898;49.864;8.550;2023-11-21T11:22:40;10.50;87.40
10089;DHT22;51898;49.864;8.550;2023-11-21T11:36:04;10.90;86.00
10089;DHT22;51898;49.864;8.550;2023-11-21T11:39:29;11.00;84.20
10089;DHT22;51898;49.864;8.550;2023-11-21T11:42:32;11.20;83.60
10089;DHT22;51898;49.864;8.550;2023-11-21T11:45:34;11.30;82.10
10089;DHT22;51898;49.864;8.550;2023-11-21T11:48:40;11.40;80.90
10089;DHT22;51898;49.864;8.550;2023-11-21T11:51:41;11.60;81.30
10089;DHT22;51898;49.864;8.550;2023-11-21T11:54:44;11.70;80.00
10089;DHT22;51898;49.864;8.550;2023-11-21T11:57:48;11.80;79.10
10089;DHT22;51898;49.864;8.550;2023-11-21T12:00:52;11.70;80.10
10089;DHT22;51898;49.864;8.550;2023-11-21T12:07:18;11.70;79.90
10089;DHT22;51898;49.864;8.550;2023-11-21T12:10:34;11.80;79.60
10089;DHT22;51898;49.864;8.550;2023-11-21T12:13:36;11.80;79.20
10089;DHT22;51898;49.864;8.550;2023-11-21T12:16:39;11.90;79.70
10089;DHT22;51898;49.864;8.550;2023-11-21T12:19:41;12.00;79.90
10089;DHT22;51898;49.864;8.550;2023-11-21T12:22:44;12.00;77.60
10089;DHT22;51898;49.864;8.550;2023-11-21T12:25:49;12.10;78.00
10089;DHT22;51898;49.864;8.550;2023-11-21T12:28:54;12.10;77.00
10089;DHT22;51898;49.864;8.550;2023-11-21T12:31:59;12.20;76.80
10089;DHT22;51898;49.864;8.550;2023-11-21T12:35:01;12.20;74.90
10089;DHT22;51898;49.864;8.550;2023-11-21T12:38:05;12.10;74.90
10089;DHT22;51898;49.864;8.550;2023-11-21T12:41:07;12.20;75.40
10089;DHT22;51898;49.864;8.550;2023-11-21T12:44:11;12.10;74.60
10089;DHT22;51898;49.864;8.550;2023-11-21T12:47:17;12.10;73.70
10089;DHT22;51898;49.864;8.550;2023-11-21T12:50:26;12.00;74.00
10089;DHT22;51898;49.864;8.550;2023-11-21T12:53:30;12.00;74.30
10089;DHT22;51898;49.864;8.550;2023-11-21T12:56:41;12.00;74.60
10089;DHT22;51898;49.864;8.550;2023-11-21T12:59:45;12.10;75.00
10089;DHT22;51898;49.864;8.550;2023-11-21T13:02:47;12.10;73.80
10089;DHT22;51898;49.864;8.550;2023-11-21T13:05:50;12.10;75.00
10089;DHT22;51898;49.864;8.550;2023-11-21T13:08:55;12.00;73.80
10089;DHT22;51898;49.864;8.550;2023-11-21T13:12:02;12.10;74.20
10089;DHT22;51898;49.864;8.550;2023-11-21T13:15:06;12.00;74.50
10089;DHT22;51898;49.864;8.550;2023-11-21T13:18:09;12.00;75.30
10089;DHT22;51898;49.864;8.550;2023-11-21T13:21:12;11.80;76.20
10089;DHT22;51898;49.864;8.550;2023-11-21T13:24:16;11.80;76.30
10089;DHT22;51898;49.864;8.550;2023-11-21T13:27:19;11.60;76.40
10089;DHT22;51898;49.864;8.550;2023-11-21T13:30:22;11.60;76.70
10089;DHT22;51898;49.864;8.550;2023-11-21T13:33:28;11.60;76.60
10089;DHT22;51898;49.864;8.550;2023-11-21T13:36:30;11.50;76.40
10089;DHT22;51898;49.864;8.550;2023-11-21T13:39:34;11.50;76.80
10089;DHT22;51898;49.864;8.550;2023-11-21T13:42:37;11.30;77.30
10089;DHT22;51898;49.864;8.550;2023-11-21T13:45:43;11.30;77.30
10089;DHT22;51898;49.864;8.550;2023-11-21T13:48:46;11.30;77.90
10089;DHT22;51898;49.864;8.550;2023-11-21T13:51:58;11.20;78.50
10089;DHT22;51898;49.864;8.550;2023-11-21T13:55:01;11.20;78.90
10089;DHT22;51898;49.864;8.550;2023-11-21T13:58:07;11.10;78.90
10089;DHT22;51898;49.864;8.550;2023-11-21T14:01:13;11.10;79.50
10089;DHT22;51898;49.864;8.550;2023-11-21T14:04:34;11.10;79.90
10089;DHT22;51898;49.864;8.550;2023-11-21T14:07:51;11.10;79.90
10089;DHT22;51898;49.864;8.550;2023-11-21T14:10:57;11.00;79.90
10089;DHT22;51898;49.864;8.550;2023-11-21T14:14:01;11.00;80.40
10089;DHT22;51898;49.864;8.550;2023-11-21T14:17:03;11.10;80.00
10089;DHT22;51898;49.864;8.550;2023-11-21T14:20:08;11.00;80.00
10089;DHT22;51898;49.864;8.550;2023-11-21T14:23:18;11.00;80.00
10089;DHT22;51898;49.864;8.550;2023-11-21T14:26:19;11.10;80.20
10089;DHT22;51898;49.864;8.550;2023-11-21T14:29:22;11.00;80.20
10089;DHT22;51898;49.864;8.550;2023-11-21T14:32:25;11.00;79.50
10089;DHT22;51898;49.864;8.550;2023-11-21T14:35:27;11.00;80.20
10089;DHT22;51898;49.864;8.550;2023-11-21T14:38:31;11.00;80.30
10089;DHT22;51898;49.864;8.550;2023-11-21T14:41:34;11.00;80.40
10089;DHT22;51898;49.864;8.550;2023-11-21T14:44:38;11.00;80.40
10089;DHT22;51898;49.864;8.550;2023-11-21T14:47:43;11.00;80.40
10089;DHT22;51898;49.864;8.550;2023-11-21T14:50:50;11.00;80.70
10089;DHT22;51898;49.864;8.550;2023-11-21T14:54:15;11.00;80.30
10089;DHT22;51898;49.864;8.550;2023-11-21T14:57:24;11.00;80.60
10089;DHT22;51898;49.864;8.550;2023-11-21T15:00:28;11.00;80.90
10089;DHT22;51898;49.864;8.550;2023-11-21T15:03:36;10.90;81.50
10089;DHT22;51898;49.864;8.550;2023-11-21T15:06:51;10.80;82.10
10089;DHT22;51898;49.864;8.550;2023-11-21T15:09:55;10.80;82.40
10089;DHT22;51898;49.864;8.550;2023-11-21T15:12:57;10.80;82.50
10089;DHT22;51898;49.864;8.550;2023-11-21T15:15:59;10.70;82.40
10089;DHT22;51898;49.864;8.550;2023-11-21T15:19:09;10.70;82.80
10089;DHT22;51898;49.864;8.550;2023-11-21T15:22:19;10.70;83.10
10089;DHT22;51898;49.864;8.550;2023-11-21T15:25:21;10.60;83.30
10089;DHT22;51898;49.864;8.550;2023-11-21T15:28:23;10.60;83.70
10089;DHT22;51898;49.864;8.550;2023-11-21T15:31:26;10.50;83.80
10089;DHT22;51898;49.864;8.550;2023-11-21T15:34:27;10.50;84.00
10089;DHT22;51898;49.864;8.550;2023-11-21T15:37:31;10.50;84.10
10089;DHT22;51898;49.864;8.550;2023-11-21T15:40:33;10.50;84.40
10089;DHT22;51898;49.864;8.550;2023-11-21T15:43:35;10.50;84.70
10089;DHT22;51898;49.864;8.550;2023-11-21T15:46:37;10.40;85.00
10089;DHT22;51898;49.864;8.550;2023-11-21T15:49:41;10.40;85.40
10089;DHT22;51898;49.864;8.550;2023-11-21T15:52:42;10.40;85.40
10089;DHT22;51898;49.864;8.550;2023-11-21T15:55:58;10.30;85.40
10089;DHT22;51898;49.864;8.550;2023-11-21T15:59:00;10.10;85.40
10089;DHT22;51898;49.864;8.550;2023-11-21T16:02:02;10.10;85.70
10089;DHT22;51898;49.864;8.550;2023-11-21T16:05:07;10.00;86.00
10089;DHT22;51898;49.864;8.550;2023-11-21T16:08:09;10.00;86.90
10089;DHT22;51898;49.864;8.550;2023-11-21T16:11:11;9.90;88.20
10089;DHT22;51898;49.864;8.550;2023-11-21T16:14:13;9.80;89.10
10089;DHT22;51898;49.864;8.550;2023-11-21T16:17:15;9.70;89.70
10089;DHT22;51898;49.864;8.550;2023-11-21T16:20:19;9.70;90.50
10089;DHT22;51898;49.864;8.550;2023-11-21T16:23:20;9.60;91.20
10089;DHT22;51898;49.864;8.550;2023-11-21T16:26:22;9.70;91.60
10089;DHT22;51898;49.864;8.550;2023-11-21T16:29:24;9.60;92.30
10089;DHT22;51898;49.864;8.550;2023-11-21T16:32:26;9.60;92.80
10089;DHT22;51898;49.864;8.550;2023-11-21T16:35:28;9.50;93.20
10089;DHT22;51898;49.864;8.550;2023-11-21T16:38:30;9.50;93.30
10089;DHT22;51898;49.864;8.550;2023-11-21T16:41:33;9.40;93.40
10089;DHT22;51898;49.864;8.550;2023-11-21T16:44:34;9.40;93.60
10089;DHT22;51898;49.864;8.550;2023-11-21T16:47:42;9.40;93.40
10089;DHT22;51898;49.864;8.550;2023-11-21T16:50:44;9.40;93.40
10089;DHT22;51898;49.864;8.550;2023-11-21T16:53:46;9.40;93.40
10089;DHT22;51898;49.864;8.550;2023-11-21T16:56:48;9.40;93.60
10089;DHT22;51898;49.864;8.550;2023-11-21T16:59:49;9.50;93.50
10089;DHT22;51898;49.864;8.550;2023-11-21T17:02:52;9.50;93.40
10089;DHT22;51898;49.864;8.550;2023-11-21T17:05:55;9.50;93.70
10089;DHT22;51898;49.864;8.550;2023-11-21T17:08:57;9.50;93.60
10089;DHT22;51898;49.864;8.550;2023-11-21T17:11:59;9.50;93.60
10089;DHT22;51898;49.864;8.550;2023-11-21T17:15:03;9.50;93.50
10089;DHT22;51898;49.864;8.550;2023-11-21T17:18:05;9.50;93.70
10089;DHT22;51898;49.864;8.550;2023-11-21T17:21:08;9.60;93.60
10089;DHT22;51898;49.864;8.550;2023-11-21T17:24:22;9.60;93.60
10089;DHT22;51898;49.864;8.550;2023-11-21T17:27:24;9.60;93.70
10089;DHT22;51898;49.864;8.550;2023-11-21T17:30:25;9.60;93.80
10089;DHT22;51898;49.864;8.550;2023-11-21T17:33:28;9.60;94.10
10089;DHT22;51898;49.864;8.550;2023-11-21T17:36:30;9.60;94.20
10089;DHT22;51898;49.864;8.550;2023-11-21T17:39:32;9.70;94.20
10089;DHT22;51898;49.864;8.550;2023-11-21T17:42:34;9.70;94.20
10089;DHT22;51898;49.864;8.550;2023-11-21T17:45:36;9.70;94.20
10089;DHT22;51898;49.864;8.550;2023-11-21T17:48:37;9.60;94.20
10089;DHT22;51898;49.864;8.550;2023-11-21T17:51:42;9.70;94.20
10089;DHT22;51898;49.864;8.550;2023-11-21T17:54:45;9.70;94.50
10089;DHT22;51898;49.864;8.550;2023-11-21T17:57:47;9.70;94.60
10089;DHT22;51898;49.864;8.550;2023-11-21T18:00:48;9.70;94.80
10089;DHT22;51898;49.864;8.550;2023-11-21T18:03:50;9.70;95.00
10089;DHT22;51898;49.864;8.550;2023-11-21T18:06:52;9.70;95.20
10089;DHT22;51898;49.864;8.550;2023-11-21T18:09:55;9.60;95.50
10089;DHT22;51898;49.864;8.550;2023-11-21T18:12:57;9.60;95.40
10089;DHT22;51898;49.864;8.550;2023-11-21T18:15:59;9.60;95.50
10089;DHT22;51898;49.864;8.550;2023-11-21T18:19:01;9.70;95.60
10089;DHT22;51898;49.864;8.550;2023-11-21T18:22:02;9.70;95.70
10089;DHT22;51898;49.864;8.550;2023-11-21T18:25:05;9.60;95.80
10089;DHT22;51898;49.864;8.550;2023-11-21T18:28:06;9.50;96.00
10089;DHT22;51898;49.864;8.550;2023-11-21T18:31:09;9.50;96.00
10089;DHT22;51898;49.864;8.550;2023-11-21T18:34:11;9.40;96.10
10089;DHT22;51898;49.864;8.550;2023-11-21T18:37:13;9.40;96.20
10089;DHT22;51898;49.864;8.550;2023-11-21T18:40:15;9.40;96.60
10089;DHT22;51898;49.864;8.550;2023-11-21T18:43:19;9.30;96.60
10089;DHT22;51898;49.864;8.550;2023-11-21T18:46:21;9.30;96.70
10089;DHT22;51898;49.864;8.550;2023-11-21T18:49:22;9.30;96.90
10089;DHT22;51898;49.864;8.550;2023-11-21T18:52:24;9.30;97.10
10089;DHT22;51898;49.864;8.550;2023-11-21T18:55:29;9.30;96.90
10089;DHT22;51898;49.864;8.550;2023-11-21T18:58:34;9.30;97.00
10089;DHT22;51898;49.864;8.550;2023-11-21T19:01:37;9.30;97.00
10089;DHT22;51898;49.864;8.550;2023-11-21T19:04:40;9.30;97.00
10089;DHT22;51898;49.864;8.550;2023-11-21T19:07:42;9.30;96.50
10089;DHT22;51898;49.864;8.550;2023-11-21T19:10:43;9.30;96.40
10089;DHT22;51898;49.864;8.550;2023-11-21T19:13:46;9.20;96.10
10089;DHT22;51898;49.864;8.550;2023-11-21T19:16:47;9.30;95.90
10089;DHT22;51898;49.864;8.550;2023-11-21T19:19:50;9.30;95.30
10089;DHT22;51898;49.864;8.550;2023-11-21T19:22:52;9.30;94.80
10089;DHT22;51898;49.864;8.550;2023-11-21T19:25:54;9.30;94.70
10089;DHT22;51898;49.864;8.550;2023-11-21T19:28:55;9.20;94.30
10089;DHT22;51898;49.864;8.550;2023-11-21T19:31:57;9.10;94.10
10089;DHT22;51898;49.864;8.550;2023-11-21T19:34:59;8.90;92.20
10089;DHT22;51898;49.864;8.550;2023-11-21T19:38:01;8.80;93.00
10089;DHT22;51898;49.864;8.550;2023-11-21T19:41:02;8.70;93.10